This is the latest recevied weather packets stored in our database for station/object E22ZMG-4. If no packets are shown the sender has not sent any weather packets the latest 10 day(s).
| Time | Temp. | Humidity | Pressure | Rain* | Wind** | Luminosity | Snow |
|---|---|---|---|---|---|---|---|
| 1777644663 | 31.67° C | 49% | 974 hPa | - | - | 0 W/m² | - |
| 1777644038 | 31.67° C | 49% | 974 hPa | - | - | 0 W/m² | - |
| 1777643414 | 31.67° C | 49% | 974 hPa | - | - | 0 W/m² | - |
| 1777642790 | 32.22° C | 48% | 974 hPa | - | - | 0 W/m² | - |
| 1777642165 | 32.22° C | 48% | 974 hPa | - | - | 0 W/m² | - |
| 1777641541 | 32.22° C | 48% | 974 hPa | - | - | 0 W/m² | - |
| 1777640916 | 31.67° C | 48% | 973 hPa | - | - | 0 W/m² | - |
| 1777640291 | 31.11° C | 44% | 973 hPa | - | - | 0 W/m² | - |
| 1777639668 | 31.11° C | 44% | 973 hPa | - | - | 0 W/m² | - |
| 1777639043 | 31.11° C | 44% | 973 hPa | - | - | 0 W/m² | - |
| 1777638419 | 31.11° C | 44% | 973 hPa | - | - | 0 W/m² | - |
| 1777637794 | 31.11° C | 44% | 972 hPa | - | - | 0 W/m² | - |
| 1777637169 | 31.11° C | 44% | 972 hPa | - | - | 0 W/m² | - |
| 1777636545 | 30.56° C | 44% | 972 hPa | - | - | 0 W/m² | - |
| 1777635920 | 30.56° C | 44% | 972 hPa | - | - | 0 W/m² | - |
| 1777635296 | 30.56° C | 44% | 972 hPa | - | - | 0 W/m² | - |
| 1777634671 | 30.56° C | 44% | 971 hPa | - | - | 0 W/m² | - |
| 1777634047 | 30.56° C | 44% | 971 hPa | - | - | 0 W/m² | - |
| 1777633422 | 30° C | 44% | 971 hPa | - | - | 0 W/m² | - |
| 1777632798 | 30° C | 44% | 971 hPa | - | - | 0 W/m² | - |
| 1777632174 | 29.44° C | 45% | 971 hPa | - | - | 0 W/m² | - |
| 1777631549 | 28.89° C | 44% | 971 hPa | - | - | 0 W/m² | - |
| 1777630925 | 28.89° C | 46% | 971 hPa | - | - | 0 W/m² | - |
| 1777630301 | 27.78° C | 48% | 971 hPa | - | - | 0 W/m² | - |
| 1777629676 | 24.44° C | 43% | 971 hPa | - | - | 0 W/m² | - |
* Rain since midnight (hover to see other rain measurements)
** Current wind speed in m/s (hover to see current wind gust speed)